Main page
METAR-TAF:

METAR-TAF

Airports :

Khartoum International Airport

Khartoum, Sudan

latitude: 15-36N, longitude: 032-33E, elevation: 382 m

Current weather observation

The report was made 37 minutes ago, at 12:30 UTC
Wind 7 kt from the North/Northeast
Temperature 36°C
Humidity 24%
Pressure 1010 hPa
Visibility 10 km or more
no clouds below 1500 m and no cumulonimbus

METAR: HSSS 211230Z 03007KT CAVOK 36/12 Q1010 NOSIG

Time: 16:07 (13:07 UTC)

Forecast

The report was made 2 hours and 7 minutes ago, at 11:00 UTC
Forecast valid from 21 at 12 UTC to 22 at 18 UTC
Wind 8 kt from the Northeast with gusts up to 18 kt
Visibility 10 km or more
no clouds below 1500 m and no cumulonimbus
Temporary
from 22 at 05 UTC to 22 at 09 UTC
Visibility: 6000 m
Clear sky

TAF: HSSS 211100Z 2112/2218 04008G18KT CAVOK TEMPO 2205/2209 6000 SKC

Weather observations and forecasts of more than 4000 airports (METAR and TAF reports).

The available stations are represented by yellow and red dots on the map.

Hover mouse over dot to see the name of the station.

Then click to see weather observations and forecasts.

To change the map : click on the green buttons with a black cross to zoom in, on the green button with a dash to zoom out, or on the green arrows for adjacent maps.


METAR-TAF: